sensor_id;sensor_type;location;lat;lon;timestamp;pressure;altitude;pressure_sealevel;temperature
69545;BMP180;56766;52.260;20.746;2023-08-24T00:02:00;100666.00;;;16.40
69545;BMP180;56766;52.260;20.746;2023-08-24T00:04:28;100663.00;;;16.30
69545;BMP180;56766;52.260;20.746;2023-08-24T00:06:55;100659.20;;;16.20
69545;BMP180;56766;52.260;20.746;2023-08-24T00:09:22;100663.00;;;16.20
69545;BMP180;56766;52.260;20.746;2023-08-24T00:11:48;100666.60;;;16.20
69545;BMP180;56766;52.260;20.746;2023-08-24T00:14:15;100669.60;;;16.10
69545;BMP180;56766;52.260;20.746;2023-08-24T00:16:42;100668.80;;;16.10
69545;BMP180;56766;52.260;20.746;2023-08-24T00:19:09;100669.20;;;16.00
69545;BMP180;56766;52.260;20.746;2023-08-24T00:21:36;100665.20;;;16.00
69545;BMP180;56766;52.260;20.746;2023-08-24T00:24:03;100671.20;;;16.00
69545;BMP180;56766;52.260;20.746;2023-08-24T00:26:30;100667.20;;;16.00
69545;BMP180;56766;52.260;20.746;2023-08-24T00:28:57;100669.00;;;15.92
69545;BMP180;56766;52.260;20.746;2023-08-24T00:31:24;100666.80;;;15.90
69545;BMP180;56766;52.260;20.746;2023-08-24T00:33:51;100662.40;;;15.90
69545;BMP180;56766;52.260;20.746;2023-08-24T00:36:18;100662.60;;;15.90
69545;BMP180;56766;52.260;20.746;2023-08-24T00:38:44;100660.80;;;15.90
69545;BMP180;56766;52.260;20.746;2023-08-24T00:41:13;100659.80;;;15.90
69545;BMP180;56766;52.260;20.746;2023-08-24T00:43:40;100655.60;;;15.90
69545;BMP180;56766;52.260;20.746;2023-08-24T00:46:08;100655.40;;;15.90
69545;BMP180;56766;52.260;20.746;2023-08-24T00:48:34;100654.20;;;15.90
69545;BMP180;56766;52.260;20.746;2023-08-24T00:51:02;100652.60;;;15.80
69545;BMP180;56766;52.260;20.746;2023-08-24T00:53:32;100652.40;;;15.80
69545;BMP180;56766;52.260;20.746;2023-08-24T00:56:00;100660.20;;;15.80
69545;BMP180;56766;52.260;20.746;2023-08-24T00:58:27;100658.80;;;15.80
69545;BMP180;56766;52.260;20.746;2023-08-24T01:00:56;100659.80;;;15.80
69545;BMP180;56766;52.260;20.746;2023-08-24T01:03:24;100657.00;;;15.78
69545;BMP180;56766;52.260;20.746;2023-08-24T01:05:52;100662.40;;;15.70
69545;BMP180;56766;52.260;20.746;2023-08-24T01:08:20;100659.80;;;15.70
69545;BMP180;56766;52.260;20.746;2023-08-24T01:11:12;100655.40;;;15.70
69545;BMP180;56766;52.260;20.746;2023-08-24T01:14:01;100655.00;;;15.70
69545;BMP180;56766;52.260;20.746;2023-08-24T01:16:34;100654.20;;;15.70
69545;BMP180;56766;52.260;20.746;2023-08-24T01:19:14;100649.40;;;15.70
69545;BMP180;56766;52.260;20.746;2023-08-24T01:21:44;100649.80;;;15.70
69545;BMP180;56766;52.260;20.746;2023-08-24T01:24:18;100652.00;;;15.70
69545;BMP180;56766;52.260;20.746;2023-08-24T01:26:52;100649.40;;;15.70
69545;BMP180;56766;52.260;20.746;2023-08-24T01:29:21;100648.40;;;15.70
69545;BMP180;56766;52.260;20.746;2023-08-24T01:31:48;100649.80;;;15.70
69545;BMP180;56766;52.260;20.746;2023-08-24T01:34:16;100650.40;;;15.70
69545;BMP180;56766;52.260;20.746;2023-08-24T01:36:43;100647.60;;;15.70
69545;BMP180;56766;52.260;20.746;2023-08-24T01:39:31;100646.00;;;15.70
69545;BMP180;56766;52.260;20.746;2023-08-24T01:42:06;100644.60;;;15.70
69545;BMP180;56766;52.260;20.746;2023-08-24T01:44:41;100640.00;;;15.70
69545;BMP180;56766;52.260;20.746;2023-08-24T01:47:11;100641.60;;;15.68
69545;BMP180;56766;52.260;20.746;2023-08-24T01:49:40;100637.80;;;15.60
69545;BMP180;56766;52.260;20.746;2023-08-24T01:52:10;100634.80;;;15.60
69545;BMP180;56766;52.260;20.746;2023-08-24T01:54:37;100640.40;;;15.60
69545;BMP180;56766;52.260;20.746;2023-08-24T01:57:06;100634.00;;;15.60
69545;BMP180;56766;52.260;20.746;2023-08-24T01:59:33;100636.20;;;15.60
69545;BMP180;56766;52.260;20.746;2023-08-24T02:02:00;100632.80;;;15.50
69545;BMP180;56766;52.260;20.746;2023-08-24T02:04:27;100632.40;;;15.50
69545;BMP180;56766;52.260;20.746;2023-08-24T02:06:53;100631.40;;;15.50
69545;BMP180;56766;52.260;20.746;2023-08-24T02:09:20;100629.40;;;15.50
69545;BMP180;56766;52.260;20.746;2023-08-24T02:11:46;100633.00;;;15.44
69545;BMP180;56766;52.260;20.746;2023-08-24T02:14:13;100629.60;;;15.40
69545;BMP180;56766;52.260;20.746;2023-08-24T02:16:39;100629.20;;;15.40
69545;BMP180;56766;52.260;20.746;2023-08-24T02:19:06;100627.00;;;15.40
69545;BMP180;56766;52.260;20.746;2023-08-24T02:21:36;100629.80;;;15.40
69545;BMP180;56766;52.260;20.746;2023-08-24T02:24:04;100627.80;;;15.40
69545;BMP180;56766;52.260;20.746;2023-08-24T02:26:31;100627.00;;;15.40
69545;BMP180;56766;52.260;20.746;2023-08-24T02:28:58;100627.00;;;15.40
69545;BMP180;56766;52.260;20.746;2023-08-24T02:31:24;100629.20;;;15.40
69545;BMP180;56766;52.260;20.746;2023-08-24T02:33:51;100626.40;;;15.40
69545;BMP180;56766;52.260;20.746;2023-08-24T02:36:18;100627.40;;;15.40
69545;BMP180;56766;52.260;20.746;2023-08-24T02:38:44;100624.40;;;15.40
69545;BMP180;56766;52.260;20.746;2023-08-24T02:41:11;100627.20;;;15.40
69545;BMP180;56766;52.260;20.746;2023-08-24T02:43:38;100621.80;;;15.50
69545;BMP180;56766;52.260;20.746;2023-08-24T02:46:08;100620.20;;;15.50
69545;BMP180;56766;52.260;20.746;2023-08-24T02:48:36;100628.00;;;15.54
69545;BMP180;56766;52.260;20.746;2023-08-24T02:51:04;100623.40;;;15.60
69545;BMP180;56766;52.260;20.746;2023-08-24T02:53:32;100629.80;;;15.60
69545;BMP180;56766;52.260;20.746;2023-08-24T02:55:59;100627.20;;;15.60
69545;BMP180;56766;52.260;20.746;2023-08-24T02:58:26;100627.60;;;15.60
69545;BMP180;56766;52.260;20.746;2023-08-24T03:00:54;100628.80;;;15.60
69545;BMP180;56766;52.260;20.746;2023-08-24T03:03:21;100627.60;;;15.60
69545;BMP180;56766;52.260;20.746;2023-08-24T03:05:59;100630.80;;;15.58
69545;BMP180;56766;52.260;20.746;2023-08-24T03:08:28;100626.80;;;15.50
69545;BMP180;56766;52.260;20.746;2023-08-24T03:10:55;100628.60;;;15.50
69545;BMP180;56766;52.260;20.746;2023-08-24T03:13:22;100625.20;;;15.50
69545;BMP180;56766;52.260;20.746;2023-08-24T03:15:48;100627.20;;;15.50
69545;BMP180;56766;52.260;20.746;2023-08-24T03:18:16;100627.00;;;15.50
69545;BMP180;56766;52.260;20.746;2023-08-24T03:20:46;100619.20;;;15.50
69545;BMP180;56766;52.260;20.746;2023-08-24T03:23:13;100615.60;;;15.50
69545;BMP180;56766;52.260;20.746;2023-08-24T03:25:42;100616.00;;;15.46
69545;BMP180;56766;52.260;20.746;2023-08-24T03:28:09;100612.80;;;15.40
69545;BMP180;56766;52.260;20.746;2023-08-24T03:30:44;100612.20;;;15.40
69545;BMP180;56766;52.260;20.746;2023-08-24T03:33:11;100611.40;;;15.40
69545;BMP180;56766;52.260;20.746;2023-08-24T03:35:40;100616.00;;;15.30
69545;BMP180;56766;52.260;20.746;2023-08-24T03:38:07;100616.80;;;15.30
69545;BMP180;56766;52.260;20.746;2023-08-24T03:40:34;100617.00;;;15.30
69545;BMP180;56766;52.260;20.746;2023-08-24T03:43:04;100615.00;;;15.30
69545;BMP180;56766;52.260;20.746;2023-08-24T03:45:31;100618.60;;;15.20
69545;BMP180;56766;52.260;20.746;2023-08-24T03:47:58;100616.20;;;15.20
69545;BMP180;56766;52.260;20.746;2023-08-24T03:50:24;100618.20;;;15.20
69545;BMP180;56766;52.260;20.746;2023-08-24T03:52:54;100617.00;;;15.20
69545;BMP180;56766;52.260;20.746;2023-08-24T03:55:22;100616.40;;;15.24
69545;BMP180;56766;52.260;20.746;2023-08-24T03:57:49;100621.40;;;15.30
69545;BMP180;56766;52.260;20.746;2023-08-24T04:00:16;100621.20;;;15.30
69545;BMP180;56766;52.260;20.746;2023-08-24T04:02:44;100622.80;;;15.38
69545;BMP180;56766;52.260;20.746;2023-08-24T04:05:11;100624.40;;;15.40
69545;BMP180;56766;52.260;20.746;2023-08-24T04:07:38;100627.00;;;15.40
69545;BMP180;56766;52.260;20.746;2023-08-24T04:10:07;100627.00;;;15.42
69545;BMP180;56766;52.260;20.746;2023-08-24T04:12:35;100623.60;;;15.50
69545;BMP180;56766;52.260;20.746;2023-08-24T04:15:02;100626.00;;;15.50
69545;BMP180;56766;52.260;20.746;2023-08-24T04:17:29;100627.60;;;15.50
69545;BMP180;56766;52.260;20.746;2023-08-24T04:19:55;100623.40;;;15.60
69545;BMP180;56766;52.260;20.746;2023-08-24T04:22:22;100624.00;;;15.60
69545;BMP180;56766;52.260;20.746;2023-08-24T04:24:49;100624.40;;;15.60
69545;BMP180;56766;52.260;20.746;2023-08-24T04:27:15;100624.40;;;15.60
69545;BMP180;56766;52.260;20.746;2023-08-24T04:29:42;100620.00;;;15.70
69545;BMP180;56766;52.260;20.746;2023-08-24T04:32:09;100618.20;;;15.70
69545;BMP180;56766;52.260;20.746;2023-08-24T04:34:35;100621.00;;;15.80
69545;BMP180;56766;52.260;20.746;2023-08-24T04:37:02;100616.00;;;15.80
69545;BMP180;56766;52.260;20.746;2023-08-24T04:39:29;100619.00;;;15.90
69545;BMP180;56766;52.260;20.746;2023-08-24T04:41:56;100613.80;;;15.94
69545;BMP180;56766;52.260;20.746;2023-08-24T04:44:24;100616.80;;;16.00
69545;BMP180;56766;52.260;20.746;2023-08-24T04:46:53;100617.00;;;16.10
69545;BMP180;56766;52.260;20.746;2023-08-24T04:49:20;100619.80;;;16.20
69545;BMP180;56766;52.260;20.746;2023-08-24T04:51:46;100615.20;;;16.40
69545;BMP180;56766;52.260;20.746;2023-08-24T04:54:13;100620.00;;;16.70
69545;BMP180;56766;52.260;20.746;2023-08-24T04:56:40;100623.80;;;16.96
69545;BMP180;56766;52.260;20.746;2023-08-24T04:59:06;100621.00;;;17.20
69545;BMP180;56766;52.260;20.746;2023-08-24T05:01:34;100625.60;;;17.50
69545;BMP180;56766;52.260;20.746;2023-08-24T05:04:01;100627.00;;;17.76
69545;BMP180;56766;52.260;20.746;2023-08-24T05:06:28;100623.80;;;18.08
69545;BMP180;56766;52.260;20.746;2023-08-24T05:08:55;100626.80;;;18.40
69545;BMP180;56766;52.260;20.746;2023-08-24T05:11:27;100627.40;;;18.70
69545;BMP180;56766;52.260;20.746;2023-08-24T05:13:57;100629.40;;;18.98
69545;BMP180;56766;52.260;20.746;2023-08-24T05:16:24;100632.40;;;19.20
69545;BMP180;56766;52.260;20.746;2023-08-24T05:18:51;100631.00;;;19.40
69545;BMP180;56766;52.260;20.746;2023-08-24T05:21:17;100633.80;;;19.60
69545;BMP180;56766;52.260;20.746;2023-08-24T05:23:44;100638.20;;;19.80
69545;BMP180;56766;52.260;20.746;2023-08-24T05:26:10;100633.20;;;19.90
69545;BMP180;56766;52.260;20.746;2023-08-24T05:28:37;100636.20;;;20.10
69545;BMP180;56766;52.260;20.746;2023-08-24T05:31:04;100633.40;;;20.20
69545;BMP180;56766;52.260;20.746;2023-08-24T05:33:30;100634.80;;;20.30
69545;BMP180;56766;52.260;20.746;2023-08-24T05:35:59;100632.80;;;20.40
69545;BMP180;56766;52.260;20.746;2023-08-24T05:38:26;100637.80;;;20.50
69545;BMP180;56766;52.260;20.746;2023-08-24T05:40:53;100640.40;;;20.60
69545;BMP180;56766;52.260;20.746;2023-08-24T05:43:19;100638.00;;;20.60
69545;BMP180;56766;52.260;20.746;2023-08-24T05:45:48;100636.40;;;20.60
69545;BMP180;56766;52.260;20.746;2023-08-24T05:48:15;100636.00;;;20.60
69545;BMP180;56766;52.260;20.746;2023-08-24T05:50:46;100632.00;;;20.70
69545;BMP180;56766;52.260;20.746;2023-08-24T05:53:14;100631.80;;;20.80
69545;BMP180;56766;52.260;20.746;2023-08-24T05:55:40;100630.20;;;20.80
69545;BMP180;56766;52.260;20.746;2023-08-24T05:58:08;100633.40;;;20.88
69545;BMP180;56766;52.260;20.746;2023-08-24T06:00:35;100630.40;;;20.90
69545;BMP180;56766;52.260;20.746;2023-08-24T06:03:03;100631.20;;;21.00
69545;BMP180;56766;52.260;20.746;2023-08-24T06:05:30;100628.80;;;21.00
69545;BMP180;56766;52.260;20.746;2023-08-24T06:07:57;100629.60;;;21.10
69545;BMP180;56766;52.260;20.746;2023-08-24T06:10:25;100631.60;;;21.10
69545;BMP180;56766;52.260;20.746;2023-08-24T06:12:53;100636.60;;;21.16
69545;BMP180;56766;52.260;20.746;2023-08-24T06:15:19;100639.80;;;21.20
69545;BMP180;56766;52.260;20.746;2023-08-24T06:17:50;100636.40;;;21.20
69545;BMP180;56766;52.260;20.746;2023-08-24T06:20:17;100637.20;;;21.20
69545;BMP180;56766;52.260;20.746;2023-08-24T06:22:45;100636.80;;;21.20
69545;BMP180;56766;52.260;20.746;2023-08-24T06:25:11;100625.80;;;21.20
69545;BMP180;56766;52.260;20.746;2023-08-24T06:27:38;100623.20;;;21.24
69545;BMP180;56766;52.260;20.746;2023-08-24T06:30:06;100627.80;;;21.30
69545;BMP180;56766;52.260;20.746;2023-08-24T06:32:32;100625.20;;;21.38
69545;BMP180;56766;52.260;20.746;2023-08-24T06:34:59;100627.80;;;21.40
69545;BMP180;56766;52.260;20.746;2023-08-24T06:37:26;100628.00;;;21.40
69545;BMP180;56766;52.260;20.746;2023-08-24T06:39:53;100630.20;;;21.42
69545;BMP180;56766;52.260;20.746;2023-08-24T06:42:19;100629.20;;;21.50
69545;BMP180;56766;52.260;20.746;2023-08-24T06:44:47;100628.80;;;21.60
69545;BMP180;56766;52.260;20.746;2023-08-24T06:47:17;100628.60;;;21.64
69545;BMP180;56766;52.260;20.746;2023-08-24T06:49:44;100630.80;;;21.70
69545;BMP180;56766;52.260;20.746;2023-08-24T06:52:10;100627.60;;;21.80
69545;BMP180;56766;52.260;20.746;2023-08-24T06:54:37;100623.60;;;21.90
69545;BMP180;56766;52.260;20.746;2023-08-24T06:57:04;100626.80;;;22.00
69545;BMP180;56766;52.260;20.746;2023-08-24T06:59:31;100628.60;;;22.10
69545;BMP180;56766;52.260;20.746;2023-08-24T07:01:58;100632.40;;;22.20
69545;BMP180;56766;52.260;20.746;2023-08-24T07:04:27;100635.80;;;22.30
69545;BMP180;56766;52.260;20.746;2023-08-24T07:06:54;100634.00;;;22.40
69545;BMP180;56766;52.260;20.746;2023-08-24T07:09:21;100635.60;;;22.60
69545;BMP180;56766;52.260;20.746;2023-08-24T07:11:48;100637.60;;;22.80
69545;BMP180;56766;52.260;20.746;2023-08-24T07:14:15;100636.00;;;23.00
69545;BMP180;56766;52.260;20.746;2023-08-24T07:16:42;100639.80;;;23.28
69545;BMP180;56766;52.260;20.746;2023-08-24T07:19:09;100642.00;;;23.54
69545;BMP180;56766;52.260;20.746;2023-08-24T07:21:36;100637.00;;;23.84
69545;BMP180;56766;52.260;20.746;2023-08-24T07:24:03;100637.60;;;24.10
69545;BMP180;56766;52.260;20.746;2023-08-24T07:26:30;100638.60;;;24.38
69545;BMP180;56766;52.260;20.746;2023-08-24T07:28:58;100634.80;;;24.60
69545;BMP180;56766;52.260;20.746;2023-08-24T07:31:25;100645.80;;;24.90
69545;BMP180;56766;52.260;20.746;2023-08-24T07:33:51;100641.40;;;25.20
69545;BMP180;56766;52.260;20.746;2023-08-24T07:36:18;100633.80;;;25.40
69545;BMP180;56766;52.260;20.746;2023-08-24T07:38:46;100640.80;;;25.56
69545;BMP180;56766;52.260;20.746;2023-08-24T07:41:16;100634.80;;;25.60
69545;BMP180;56766;52.260;20.746;2023-08-24T07:43:44;100631.60;;;25.50
69545;BMP180;56766;52.260;20.746;2023-08-24T07:46:11;100633.80;;;25.50
69545;BMP180;56766;52.260;20.746;2023-08-24T07:48:38;100632.60;;;25.60
69545;BMP180;56766;52.260;20.746;2023-08-24T07:51:05;100629.60;;;25.60
69545;BMP180;56766;52.260;20.746;2023-08-24T07:53:31;100625.00;;;25.70
69545;BMP180;56766;52.260;20.746;2023-08-24T07:56:00;100632.00;;;25.80
69545;BMP180;56766;52.260;20.746;2023-08-24T07:58:28;100629.40;;;26.00
69545;BMP180;56766;52.260;20.746;2023-08-24T08:00:55;100628.20;;;26.10
69545;BMP180;56766;52.260;20.746;2023-08-24T08:03:21;100629.60;;;26.20
69545;BMP180;56766;52.260;20.746;2023-08-24T08:05:48;100628.20;;;26.30
69545;BMP180;56766;52.260;20.746;2023-08-24T08:08:18;100626.20;;;26.40
69545;BMP180;56766;52.260;20.746;2023-08-24T08:10:45;100627.40;;;26.50
69545;BMP180;56766;52.260;20.746;2023-08-24T08:13:12;100628.20;;;26.50
69545;BMP180;56766;52.260;20.746;2023-08-24T08:15:38;100628.80;;;26.30
69545;BMP180;56766;52.260;20.746;2023-08-24T08:18:06;100630.60;;;26.20
69545;BMP180;56766;52.260;20.746;2023-08-24T08:20:32;100634.40;;;26.20
69545;BMP180;56766;52.260;20.746;2023-08-24T08:22:59;100635.60;;;26.10
69545;BMP180;56766;52.260;20.746;2023-08-24T08:25:26;100637.20;;;26.10
69545;BMP180;56766;52.260;20.746;2023-08-24T08:27:53;100636.40;;;26.14
69545;BMP180;56766;52.260;20.746;2023-08-24T08:30:19;100633.60;;;26.20
69545;BMP180;56766;52.260;20.746;2023-08-24T08:32:46;100639.00;;;26.30
69545;BMP180;56766;52.260;20.746;2023-08-24T08:35:13;100634.00;;;26.40
69545;BMP180;56766;52.260;20.746;2023-08-24T08:37:40;100631.20;;;26.52
69545;BMP180;56766;52.260;20.746;2023-08-24T08:40:10;100632.20;;;26.76
69545;BMP180;56766;52.260;20.746;2023-08-24T08:42:37;100635.80;;;26.90
69545;BMP180;56766;52.260;20.746;2023-08-24T08:45:09;100632.00;;;27.10
69545;BMP180;56766;52.260;20.746;2023-08-24T08:47:38;100636.60;;;27.20
69545;BMP180;56766;52.260;20.746;2023-08-24T08:50:05;100632.20;;;27.44
69545;BMP180;56766;52.260;20.746;2023-08-24T08:52:32;100632.80;;;27.64
69545;BMP180;56766;52.260;20.746;2023-08-24T08:55:01;100636.40;;;27.90
69545;BMP180;56766;52.260;20.746;2023-08-24T08:57:27;100635.60;;;28.00
69545;BMP180;56766;52.260;20.746;2023-08-24T08:59:55;100625.40;;;28.00
69545;BMP180;56766;52.260;20.746;2023-08-24T09:02:24;100626.20;;;27.90
69545;BMP180;56766;52.260;20.746;2023-08-24T09:04:51;100629.00;;;27.90
69545;BMP180;56766;52.260;20.746;2023-08-24T09:07:18;100625.20;;;27.90
69545;BMP180;56766;52.260;20.746;2023-08-24T09:09:45;100623.40;;;27.94
69545;BMP180;56766;52.260;20.746;2023-08-24T09:12:11;100627.40;;;28.12
69545;BMP180;56766;52.260;20.746;2023-08-24T09:14:38;100623.40;;;28.36
69545;BMP180;56766;52.260;20.746;2023-08-24T09:17:06;100621.00;;;28.60
69545;BMP180;56766;52.260;20.746;2023-08-24T09:19:33;100622.80;;;28.76
69545;BMP180;56766;52.260;20.746;2023-08-24T09:22:07;100618.40;;;28.80
69545;BMP180;56766;52.260;20.746;2023-08-24T09:24:35;100617.40;;;28.90
69545;BMP180;56766;52.260;20.746;2023-08-24T09:27:19;100617.40;;;29.00
69545;BMP180;56766;52.260;20.746;2023-08-24T09:29:52;100613.80;;;29.00
69545;BMP180;56766;52.260;20.746;2023-08-24T09:32:30;100609.20;;;28.88
69545;BMP180;56766;52.260;20.746;2023-08-24T09:35:09;100612.20;;;28.80
69545;BMP180;56766;52.260;20.746;2023-08-24T09:37:37;100609.80;;;29.00
69545;BMP180;56766;52.260;20.746;2023-08-24T09:40:07;100613.40;;;29.20
69545;BMP180;56766;52.260;20.746;2023-08-24T09:45:16;100608.60;;;29.40
69545;BMP180;56766;52.260;20.746;2023-08-24T09:47:50;100613.60;;;29.60
69545;BMP180;56766;52.260;20.746;2023-08-24T09:50:18;100628.00;;;29.80
69545;BMP180;56766;52.260;20.746;2023-08-24T09:52:47;100621.80;;;29.94
69545;BMP180;56766;52.260;20.746;2023-08-24T09:55:20;100617.60;;;29.90
69545;BMP180;56766;52.260;20.746;2023-08-24T09:57:53;100618.20;;;29.70
69545;BMP180;56766;52.260;20.746;2023-08-24T10:00:22;100619.00;;;29.50
69545;BMP180;56766;52.260;20.746;2023-08-24T10:02:53;100617.60;;;29.60
69545;BMP180;56766;52.260;20.746;2023-08-24T10:05:23;100613.60;;;29.40
69545;BMP180;56766;52.260;20.746;2023-08-24T10:07:53;100611.40;;;29.40
69545;BMP180;56766;52.260;20.746;2023-08-24T10:10:25;100616.00;;;29.60
69545;BMP180;56766;52.260;20.746;2023-08-24T10:13:05;100609.00;;;29.80
69545;BMP180;56766;52.260;20.746;2023-08-24T10:15:38;100610.00;;;29.88
69545;BMP180;56766;52.260;20.746;2023-08-24T10:18:18;100613.80;;;30.10
69545;BMP180;56766;52.260;20.746;2023-08-24T10:20:47;100614.20;;;30.30
69545;BMP180;56766;52.260;20.746;2023-08-24T10:23:16;100606.80;;;30.40
69545;BMP180;56766;52.260;20.746;2023-08-24T10:25:46;100610.00;;;30.50
69545;BMP180;56766;52.260;20.746;2023-08-24T10:28:14;100610.20;;;30.60
69545;BMP180;56766;52.260;20.746;2023-08-24T10:30:44;100614.40;;;30.66
69545;BMP180;56766;52.260;20.746;2023-08-24T10:33:13;100609.40;;;30.70
69545;BMP180;56766;52.260;20.746;2023-08-24T10:35:43;100605.60;;;30.60
69545;BMP180;56766;52.260;20.746;2023-08-24T10:38:29;100605.20;;;30.60
69545;BMP180;56766;52.260;20.746;2023-08-24T10:41:05;100606.20;;;30.60
69545;BMP180;56766;52.260;20.746;2023-08-24T10:43:41;100601.20;;;30.70
69545;BMP180;56766;52.260;20.746;2023-08-24T10:46:16;100606.80;;;30.88
69545;BMP180;56766;52.260;20.746;2023-08-24T10:53:56;100598.00;;;31.36
69545;BMP180;56766;52.260;20.746;2023-08-24T10:56:53;100594.00;;;31.50
69545;BMP180;56766;52.260;20.746;2023-08-24T10:59:25;100594.20;;;31.50
69545;BMP180;56766;52.260;20.746;2023-08-24T11:04:18;100590.40;;;31.30
69545;BMP180;56766;52.260;20.746;2023-08-24T11:06:55;100590.00;;;31.40
69545;BMP180;56766;52.260;20.746;2023-08-24T11:09:23;100585.40;;;31.70
69545;BMP180;56766;52.260;20.746;2023-08-24T11:12:02;100593.20;;;31.92
69545;BMP180;56766;52.260;20.746;2023-08-24T11:14:30;100588.80;;;31.90
69545;BMP180;56766;52.260;20.746;2023-08-24T11:17:00;100591.20;;;32.08
69545;BMP180;56766;52.260;20.746;2023-08-24T11:19:29;100590.40;;;32.20
69545;BMP180;56766;52.260;20.746;2023-08-24T11:21:57;100584.80;;;32.20
69545;BMP180;56766;52.260;20.746;2023-08-24T11:24:25;100584.60;;;31.90
69545;BMP180;56766;52.260;20.746;2023-08-24T11:26:52;100587.80;;;32.02
69545;BMP180;56766;52.260;20.746;2023-08-24T11:29:19;100587.40;;;32.20
69545;BMP180;56766;52.260;20.746;2023-08-24T11:31:47;100592.00;;;32.30
69545;BMP180;56766;52.260;20.746;2023-08-24T11:34:17;100590.80;;;32.20
69545;BMP180;56766;52.260;20.746;2023-08-24T11:36:47;100581.20;;;32.10
69545;BMP180;56766;52.260;20.746;2023-08-24T11:39:18;100578.00;;;31.94
69545;BMP180;56766;52.260;20.746;2023-08-24T11:42:04;100575.20;;;31.70
69545;BMP180;56766;52.260;20.746;2023-08-24T11:44:49;100573.40;;;31.40
69545;BMP180;56766;52.260;20.746;2023-08-24T11:47:19;100570.80;;;31.30
69545;BMP180;56766;52.260;20.746;2023-08-24T11:49:46;100569.20;;;31.30
69545;BMP180;56766;52.260;20.746;2023-08-24T11:52:13;100569.40;;;31.50
69545;BMP180;56766;52.260;20.746;2023-08-24T11:54:42;100561.60;;;31.76
69545;BMP180;56766;52.260;20.746;2023-08-24T11:57:10;100567.60;;;31.80
69545;BMP180;56766;52.260;20.746;2023-08-24T11:59:39;100569.60;;;31.92
69545;BMP180;56766;52.260;20.746;2023-08-24T12:02:06;100569.80;;;31.80
69545;BMP180;56766;52.260;20.746;2023-08-24T12:04:42;100563.60;;;31.60
69545;BMP180;56766;52.260;20.746;2023-08-24T12:07:12;100564.00;;;31.50
69545;BMP180;56766;52.260;20.746;2023-08-24T12:09:41;100559.40;;;31.70
69545;BMP180;56766;52.260;20.746;2023-08-24T12:12:18;100555.60;;;32.00
69545;BMP180;56766;52.260;20.746;2023-08-24T12:14:48;100554.00;;;32.10
69545;BMP180;56766;52.260;20.746;2023-08-24T12:17:16;100547.00;;;31.98
69545;BMP180;56766;52.260;20.746;2023-08-24T12:20:02;100542.40;;;31.58
69545;BMP180;56766;52.260;20.746;2023-08-24T12:22:33;100541.60;;;30.88
69545;BMP180;56766;52.260;20.746;2023-08-24T12:25:00;100538.80;;;30.30
69545;BMP180;56766;52.260;20.746;2023-08-24T12:27:27;100539.60;;;29.84
69545;BMP180;56766;52.260;20.746;2023-08-24T12:29:53;100540.80;;;29.44
69545;BMP180;56766;52.260;20.746;2023-08-24T12:32:21;100546.40;;;29.00
69545;BMP180;56766;52.260;20.746;2023-08-24T12:34:51;100547.20;;;28.80
69545;BMP180;56766;52.260;20.746;2023-08-24T12:37:18;100546.20;;;28.50
69545;BMP180;56766;52.260;20.746;2023-08-24T12:39:44;100547.80;;;28.30
69545;BMP180;56766;52.260;20.746;2023-08-24T12:42:11;100540.20;;;28.30
69545;BMP180;56766;52.260;20.746;2023-08-24T12:44:38;100542.40;;;28.60
69545;BMP180;56766;52.260;20.746;2023-08-24T12:47:05;100548.20;;;28.80
69545;BMP180;56766;52.260;20.746;2023-08-24T12:49:31;100548.80;;;29.08
69545;BMP180;56766;52.260;20.746;2023-08-24T12:51:58;100541.80;;;29.40
69545;BMP180;56766;52.260;20.746;2023-08-24T12:54:25;100544.60;;;29.70
69545;BMP180;56766;52.260;20.746;2023-08-24T12:56:51;100548.20;;;29.94
69545;BMP180;56766;52.260;20.746;2023-08-24T12:59:18;100543.00;;;30.00
69545;BMP180;56766;52.260;20.746;2023-08-24T13:01:45;100539.40;;;30.10
69545;BMP180;56766;52.260;20.746;2023-08-24T13:04:12;100532.60;;;30.30
69545;BMP180;56766;52.260;20.746;2023-08-24T13:06:39;100529.60;;;30.54
69545;BMP180;56766;52.260;20.746;2023-08-24T13:09:05;100521.80;;;30.90
69545;BMP180;56766;52.260;20.746;2023-08-24T13:11:33;100514.20;;;31.10
69545;BMP180;56766;52.260;20.746;2023-08-24T13:13:59;100513.60;;;31.30
69545;BMP180;56766;52.260;20.746;2023-08-24T13:16:26;100507.20;;;31.40
69545;BMP180;56766;52.260;20.746;2023-08-24T13:18:54;100499.80;;;31.40
69545;BMP180;56766;52.260;20.746;2023-08-24T13:21:20;100505.80;;;31.40
69545;BMP180;56766;52.260;20.746;2023-08-24T13:23:47;100501.60;;;31.30
69545;BMP180;56766;52.260;20.746;2023-08-24T13:26:19;100506.20;;;31.28
69545;BMP180;56766;52.260;20.746;2023-08-24T13:28:51;100501.60;;;30.96
69545;BMP180;56766;52.260;20.746;2023-08-24T13:31:19;100500.60;;;30.50
69545;BMP180;56766;52.260;20.746;2023-08-24T13:33:45;100502.00;;;30.20
69545;BMP180;56766;52.260;20.746;2023-08-24T13:36:12;100498.80;;;30.10
69545;BMP180;56766;52.260;20.746;2023-08-24T13:38:39;100500.60;;;29.96
69545;BMP180;56766;52.260;20.746;2023-08-24T13:41:06;100497.20;;;29.70
69545;BMP180;56766;52.260;20.746;2023-08-24T13:43:32;100494.20;;;29.50
69545;BMP180;56766;52.260;20.746;2023-08-24T13:45:59;100493.40;;;29.40
69545;BMP180;56766;52.260;20.746;2023-08-24T13:48:25;100494.80;;;29.38
69545;BMP180;56766;52.260;20.746;2023-08-24T13:50:53;100493.20;;;29.20
69545;BMP180;56766;52.260;20.746;2023-08-24T13:53:20;100489.40;;;28.86
69545;BMP180;56766;52.260;20.746;2023-08-24T13:55:46;100489.60;;;28.64
69545;BMP180;56766;52.260;20.746;2023-08-24T13:58:13;100485.80;;;28.40
69545;BMP180;56766;52.260;20.746;2023-08-24T14:00:40;100483.80;;;28.20
69545;BMP180;56766;52.260;20.746;2023-08-24T14:03:07;100483.00;;;27.92